Lenox Dale, Massachusetts
Current Conditions -  °F | °C
As of 11:54 AM on Wednesday 26 Nov 2014 (Local Time) from KPSF Reporting Station
Heavy Snow Heavy Snow  
Wind Chill: 32°   Ceiling: 400
Heat Index: 32°   Visibility: 0.25mi
Dew Point: 31°   Wind: 3mph
Humidity: 96%   Direction: 40°NE
Pressure: 30.05"   Gusts: NA
Location:  42.34°N, 73.25°W
Report Text: KPSF 261654Z AUTO 04003KT 1/4SM +SN FG VV004 00/M01 A3005 RMK AO2 SLP183 P0015 T00001006
Loading
Personal Weather Stations






























Interactive Weather Map New forecast layout! Learn more

10-Day Weather Forecast

Advertisements
Track Severe Weather on mobile